Time;durP1;ratioP1;P1;durP2;ratioP2;P2;SDS_P1;SDS_P2;PMS_P1;PMS_P2;Temp;Humidity;BMP_temperature;BMP_pressure;BME280_temperature;BME280_humidity;BME280_pressure;Samples;Min_cycle;Max_cycle;Signal;HPM_P1;HPM_P2
2023/04/01 00:02:20;;;;;;;8.25;3.88;;;9.90;99.90;;;;;;4998831;28;20042;-56
2023/04/01 00:04:45;;;;;;;6.38;4.05;;;9.90;99.90;;;;;;5009014;28;20038;-56
2023/04/01 00:07:12;;;;;;;5.57;3.38;;;9.90;99.90;;;;;;5004870;28;20456;-55
2023/04/01 00:09:37;;;;;;;4.25;3.70;;;9.90;99.90;;;;;;5007590;28;20074;-56
2023/04/01 00:12:04;;;;;;;6.47;3.58;;;9.90;99.90;;;;;;5007893;28;20084;-57
2023/04/01 00:14:30;;;;;;;5.65;3.60;;;9.90;99.90;;;;;;5006832;28;20110;-55
2023/04/01 00:16:56;;;;;;;5.32;3.50;;;9.80;99.90;;;;;;5005114;28;20474;-56
2023/04/01 00:19:22;;;;;;;4.88;3.70;;;9.80;99.90;;;;;;4991633;28;20129;-56
2023/04/01 00:21:47;;;;;;;7.03;3.42;;;9.80;99.90;;;;;;5004283;28;20128;-52
2023/04/01 00:24:13;;;;;;;4.55;3.28;;;9.80;99.90;;;;;;5008693;28;20471;-53
2023/04/01 00:26:40;;;;;;;5.45;3.03;;;9.80;99.90;;;;;;5010216;28;20046;-56
2023/04/01 00:29:06;;;;;;;4.78;2.85;;;9.80;99.90;;;;;;5008722;28;20045;-55
2023/04/01 00:31:32;;;;;;;5.28;2.60;;;9.80;99.90;;;;;;4992366;28;20046;-55
2023/04/01 00:33:58;;;;;;;3.30;2.90;;;9.80;99.90;;;;;;5002939;28;20099;-56
2023/04/01 00:36:24;;;;;;;6.07;2.90;;;9.80;99.90;;;;;;5001018;28;20049;-55
2023/04/01 00:38:51;;;;;;;5.45;3.28;;;9.80;99.90;;;;;;5007806;28;20121;-55
2023/04/01 00:41:18;;;;;;;4.97;3.15;;;9.80;99.90;;;;;;5008917;28;20495;-55
2023/04/01 00:43:48;;;;;;;5.28;2.80;;;9.80;99.90;;;;;;5009978;28;20053;-53
2023/04/01 00:46:15;;;;;;;4.38;3.45;;;9.80;99.90;;;;;;5010435;28;20380;-54
2023/04/01 00:48:53;;;;;;;3.83;3.33;;;9.80;99.90;;;;;;5010162;28;20042;-55
2023/04/01 00:51:23;;;;;;;6.22;3.40;;;9.80;99.90;;;;;;4997345;28;20041;-55
2023/04/01 00:53:52;;;;;;;3.47;3.08;;;9.80;99.90;;;;;;4999351;28;20355;-55
2023/04/01 00:56:35;;;;;;;4.20;2.92;;;9.80;99.90;;;;;;4998482;28;20046;-54
2023/04/01 00:59:08;;;;;;;6.13;3.40;;;9.80;99.90;;;;;;4981511;28;20042;-55
2023/04/01 01:01:35;;;;;;;7.78;3.30;;;9.80;99.90;;;;;;4999762;28;20041;-53
2023/04/01 01:04:02;;;;;;;7.10;3.60;;;9.80;99.90;;;;;;4998705;28;20046;-56
2023/04/01 01:06:39;;;;;;;5.78;3.53;;;9.80;99.90;;;;;;4999867;28;20562;-54
2023/04/01 01:09:10;;;;;;;6.22;3.63;;;9.80;99.90;;;;;;4998687;28;20410;-56
2023/04/01 01:11:42;;;;;;;6.13;4.07;;;9.80;99.90;;;;;;4999840;28;20048;-56
2023/04/01 01:14:17;;;;;;;5.93;3.53;;;9.80;99.90;;;;;;4999003;28;20058;-56
2023/04/01 01:16:48;;;;;;;4.55;3.58;;;9.80;99.90;;;;;;5003631;28;20087;-56
2023/04/01 01:19:43;;;;;;;7.25;3.67;;;9.70;99.90;;;;;;5009827;28;20110;-54
2023/04/01 01:22:32;;;;;;;7.25;4.20;;;9.70;99.90;;;;;;5009662;28;20398;-55
2023/04/01 01:25:30;;;;;;;4.82;3.95;;;9.70;99.90;;;;;;5005567;28;20046;-52
2023/04/01 01:28:19;;;;;;;6.00;3.67;;;9.70;99.90;;;;;;5009868;28;20125;-55
2023/04/01 01:31:02;;;;;;;6.65;4.20;;;9.70;99.90;;;;;;4994061;28;20082;-55
2023/04/01 01:33:46;;;;;;;8.27;4.30;;;9.70;99.90;;;;;;5013138;28;20058;-56
2023/04/01 01:36:15;;;;;;;5.95;4.20;;;9.70;99.90;;;;;;5013295;28;20081;-52
2023/04/01 01:38:41;;;;;;;7.75;4.35;;;9.70;99.90;;;;;;5004638;28;20512;-54
2023/04/01 01:41:09;;;;;;;5.28;4.05;;;9.70;99.90;;;;;;5001421;28;20087;-56
2023/04/01 01:43:44;;;;;;;8.02;4.32;;;9.70;99.90;;;;;;5010878;28;20414;-56
2023/04/01 01:46:17;;;;;;;5.80;4.00;;;9.70;99.90;;;;;;5011958;28;20117;-55
2023/04/01 01:48:44;;;;;;;5.10;4.13;;;9.70;99.90;;;;;;5002610;28;20045;-55
2023/04/01 01:51:10;;;;;;;7.80;4.63;;;9.70;99.90;;;;;;5000787;28;20049;-56
2023/04/01 01:53:36;;;;;;;5.40;4.53;;;9.70;99.90;;;;;;5002113;28;20077;-57
2023/04/01 01:56:02;;;;;;;6.35;4.05;;;9.70;99.90;;;;;;5001304;28;20521;-57
2023/04/01 01:58:40;;;;;;;7.05;4.35;;;9.70;99.90;;;;;;5001824;28;20053;-56
2023/04/01 02:01:11;;;;;;;7.38;4.82;;;9.70;99.90;;;;;;5001272;28;20041;-54
2023/04/01 02:03:40;;;;;;;5.45;4.43;;;9.70;99.90;;;;;;5001171;28;20124;-53
2023/04/01 02:06:09;;;;;;;7.40;4.30;;;9.70;99.90;;;;;;5002791;28;20056;-55
2023/04/01 02:09:03;;;;;;;5.15;4.40;;;9.70;99.90;;;;;;5003316;28;20327;-57
2023/04/01 02:11:31;;;;;;;5.85;4.45;;;9.60;99.90;;;;;;4999883;28;20054;-55
2023/04/01 02:14:29;;;;;;;6.25;4.93;;;9.70;99.90;;;;;;5002345;28;20045;-56
2023/04/01 02:17:05;;;;;;;6.28;4.50;;;9.60;99.90;;;;;;5001513;28;20054;-56
2023/04/01 02:19:36;;;;;;;6.68;4.50;;;9.70;99.90;;;;;;5007695;28;20038;-54
2023/04/01 02:22:05;;;;;;;7.70;4.53;;;9.70;99.90;;;;;;4998556;28;20403;-55
2023/04/01 02:24:34;;;;;;;6.65;5.40;;;9.70;99.90;;;;;;5016156;28;20391;-55
2023/04/01 02:27:00;;;;;;;7.45;5.13;;;9.60;99.90;;;;;;5014703;28;20380;-56
2023/04/01 02:29:26;;;;;;;6.65;4.80;;;9.70;99.90;;;;;;5012231;28;20053;-55
2023/04/01 02:31:54;;;;;;;5.90;4.63;;;9.70;99.90;;;;;;5008823;28;20124;-56
2023/04/01 02:34:22;;;;;;;6.00;4.85;;;9.70;99.90;;;;;;5008227;28;20046;-56
2023/04/01 02:36:49;;;;;;;6.90;4.53;;;9.70;99.90;;;;;;5006238;28;20045;-54
2023/04/01 02:39:15;;;;;;;9.43;5.40;;;9.70;99.90;;;;;;5004874;28;20115;-55
2023/04/01 02:41:42;;;;;;;5.97;4.20;;;9.70;99.90;;;;;;5006550;28;20038;-55
2023/04/01 02:44:09;;;;;;;5.38;4.38;;;9.70;99.90;;;;;;5002926;28;20050;-55
2023/04/01 02:46:35;;;;;;;7.10;4.70;;;9.70;99.90;;;;;;5003707;28;20094;-56
2023/04/01 02:49:00;;;;;;;6.78;4.70;;;9.70;99.90;;;;;;5000578;28;20042;-55
2023/04/01 02:51:26;;;;;;;4.80;4.38;;;9.70;99.90;;;;;;4999996;28;20172;-53
2023/04/01 02:53:52;;;;;;;7.90;4.80;;;9.60;99.90;;;;;;4992052;28;20121;-53
2023/04/01 02:56:19;;;;;;;5.10;4.60;;;9.70;99.90;;;;;;5000240;28;20470;-55
2023/04/01 02:58:45;;;;;;;6.67;4.73;;;9.70;99.90;;;;;;4982697;28;20046;-54
2023/04/01 03:01:11;;;;;;;7.38;4.32;;;9.70;99.90;;;;;;5001355;28;20441;-55
2023/04/01 03:03:36;;;;;;;6.18;4.30;;;9.70;99.90;;;;;;5000458;28;20548;-56
2023/04/01 03:06:06;;;;;;;5.43;4.50;;;9.70;99.90;;;;;;5001286;28;20076;-55
2023/04/01 03:08:32;;;;;;;6.75;4.40;;;9.70;99.90;;;;;;4999383;28;20406;-55
2023/04/01 03:10:58;;;;;;;5.30;4.50;;;9.70;99.90;;;;;;5000732;28;20046;-55
2023/04/01 03:13:23;;;;;;;5.20;4.70;;;9.70;99.90;;;;;;5000523;28;20116;-54
2023/04/01 03:15:49;;;;;;;6.82;4.93;;;9.70;99.90;;;;;;5001022;28;20390;-54
2023/04/01 03:18:15;;;;;;;7.22;4.80;;;9.70;99.90;;;;;;5000729;28;21942;-56
2023/04/01 03:20:40;;;;;;;5.90;4.68;;;9.70;99.90;;;;;;5001576;28;20122;-53
2023/04/01 03:23:07;;;;;;;6.10;4.97;;;9.70;99.90;;;;;;4967343;28;20034;-52
2023/04/01 03:25:33;;;;;;;5.90;4.83;;;9.70;99.90;;;;;;5001368;28;20044;-56
2023/04/01 03:27:59;;;;;;;5.00;4.50;;;9.70;99.90;;;;;;5009210;28;20300;-55
2023/04/01 03:30:25;;;;;;;5.47;4.97;;;9.70;99.90;;;;;;5008115;28;20050;-54
2023/04/01 03:32:51;;;;;;;6.93;5.03;;;9.70;99.90;;;;;;5011203;28;20165;-55
2023/04/01 03:35:17;;;;;;;5.63;5.03;;;9.70;99.90;;;;;;4989912;28;20534;-56
2023/04/01 03:37:43;;;;;;;5.82;5.22;;;9.70;99.90;;;;;;5010648;28;20103;-53
2023/04/01 03:40:09;;;;;;;6.55;5.32;;;9.70;99.90;;;;;;5005417;28;20524;-53
2023/04/01 03:42:35;;;;;;;6.95;5.88;;;9.70;99.90;;;;;;5007982;28;20053;-53
2023/04/01 03:45:02;;;;;;;8.02;5.93;;;9.80;99.90;;;;;;5002868;28;20056;-55
2023/04/01 03:47:28;;;;;;;10.45;5.95;;;9.70;99.90;;;;;;5005037;28;20125;-56
2023/04/01 03:49:54;;;;;;;7.72;5.75;;;9.70;99.90;;;;;;4988209;28;20389;-54
2023/04/01 03:52:20;;;;;;;6.45;5.43;;;9.70;99.90;;;;;;5000823;28;20082;-56
2023/04/01 03:54:45;;;;;;;8.07;6.00;;;9.70;99.90;;;;;;5003525;28;20050;-55
2023/04/01 03:57:11;;;;;;;7.78;5.88;;;9.70;99.90;;;;;;4986770;28;20053;-55
2023/04/01 03:59:37;;;;;;;8.48;6.10;;;9.70;99.90;;;;;;5009312;28;20118;-54
2023/04/01 04:02:02;;;;;;;7.15;6.15;;;9.70;99.90;;;;;;5009596;28;20125;-53
2023/04/01 04:04:31;;;;;;;6.30;5.70;;;9.70;99.90;;;;;;5008736;28;20125;-54
2023/04/01 04:06:57;;;;;;;6.50;5.90;;;9.70;99.90;;;;;;5007476;28;20041;-51
2023/04/01 04:09:23;;;;;;;6.20;5.57;;;9.70;99.90;;;;;;5005598;28;20038;-54
2023/04/01 04:11:49;;;;;;;6.60;5.95;;;9.80;99.90;;;;;;5003733;28;20038;-54
2023/04/01 04:14:15;;;;;;;6.45;5.50;;;9.70;99.90;;;;;;5007947;28;20033;-52
2023/04/01 04:16:41;;;;;;;6.28;5.45;;;9.70;99.90;;;;;;5007380;28;20415;-51
2023/04/01 04:19:07;;;;;;;7.97;5.75;;;9.70;99.90;;;;;;5002645;28;20046;-54
2023/04/01 04:21:32;;;;;;;6.90;6.00;;;9.70;99.90;;;;;;5009531;28;20041;-53
2023/04/01 04:24:00;;;;;;;6.32;5.72;;;9.70;99.90;;;;;;5008942;28;20102;-55
2023/04/01 04:26:25;;;;;;;7.00;5.67;;;9.80;99.90;;;;;;5009049;28;20166;-53
2023/04/01 04:28:51;;;;;;;7.45;6.68;;;9.80;99.90;;;;;;5008818;28;20380;-52
2023/04/01 04:31:22;;;;;;;6.13;5.53;;;9.70;99.90;;;;;;5006024;28;20037;-55
2023/04/01 04:33:47;;;;;;;8.68;6.40;;;9.80;99.90;;;;;;5009912;28;20504;-56
2023/04/01 04:36:13;;;;;;;8.45;6.78;;;9.70;99.90;;;;;;5008454;28;20080;-56
2023/04/01 04:38:39;;;;;;;9.45;6.70;;;9.70;99.90;;;;;;5008117;28;20479;-54
2023/04/01 04:41:10;;;;;;;6.93;6.22;;;9.80;99.90;;;;;;5007184;28;20049;-55
2023/04/01 04:43:35;;;;;;;7.18;6.47;;;9.70;99.90;;;;;;5007673;28;20049;-56
2023/04/01 04:46:05;;;;;;;8.80;6.70;;;9.80;99.90;;;;;;5009065;28;20041;-56
2023/04/01 04:48:31;;;;;;;7.80;6.40;;;9.80;99.90;;;;;;4991133;28;20049;-56
2023/04/01 04:50:57;;;;;;;7.63;6.25;;;9.70;99.90;;;;;;5006971;28;20102;-54
2023/04/01 04:53:22;;;;;;;7.75;6.28;;;9.70;99.90;;;;;;5009605;28;20495;-54
2023/04/01 04:55:49;;;;;;;9.05;6.47;;;9.70;99.90;;;;;;5003079;28;20045;-56
2023/04/01 04:58:16;;;;;;;8.23;6.23;;;9.80;99.90;;;;;;5003627;28;20088;-56
2023/04/01 05:00:42;;;;;;;8.48;6.45;;;9.70;99.90;;;;;;5003849;28;20669;-55
2023/04/01 05:03:09;;;;;;;9.45;6.55;;;9.70;99.90;;;;;;5008149;28;20056;-56
2023/04/01 05:05:35;;;;;;;7.50;6.70;;;9.70;99.90;;;;;;5007537;28;20103;-56
2023/04/01 05:08:01;;;;;;;7.63;6.00;;;9.70;99.90;;;;;;4995620;28;20034;-55
2023/04/01 05:10:26;;;;;;;6.90;5.88;;;9.70;99.90;;;;;;4992689;28;20141;-56
2023/04/01 05:12:52;;;;;;;7.50;6.07;;;9.70;99.90;;;;;;5003749;28;20122;-55
2023/04/01 05:15:18;;;;;;;8.73;6.43;;;9.80;99.90;;;;;;5001307;28;20034;-56
2023/04/01 05:17:43;;;;;;;10.50;6.80;;;9.80;99.90;;;;;;5004248;28;20052;-56
2023/04/01 05:20:11;;;;;;;7.70;6.40;;;9.70;99.90;;;;;;5002869;28;20069;-55
2023/04/01 05:22:36;;;;;;;8.00;6.22;;;9.70;99.90;;;;;;5000947;28;20046;-57
2023/04/01 05:25:02;;;;;;;7.93;6.78;;;9.80;99.90;;;;;;4984592;28;20409;-56
2023/04/01 05:27:28;;;;;;;8.05;7.03;;;9.70;99.90;;;;;;4980270;28;20426;-55
2023/04/01 05:29:53;;;;;;;6.47;5.80;;;9.80;99.90;;;;;;5003143;28;20171;-55
2023/04/01 05:32:19;;;;;;;7.30;6.07;;;9.90;99.90;;;;;;5002616;28;20034;-53
2023/04/01 05:34:44;;;;;;;6.68;5.97;;;10.40;99.90;;;;;;5002700;28;20462;-57
2023/04/01 05:37:10;;;;;;;6.32;5.72;;;10.00;99.90;;;;;;5001233;28;20066;-55
2023/04/01 05:39:40;;;;;;;7.40;5.55;;;9.80;99.90;;;;;;5003294;28;20061;-54
2023/04/01 05:42:07;;;;;;;6.32;5.72;;;9.80;99.90;;;;;;5002352;28;20062;-56
2023/04/01 05:44:33;;;;;;;7.95;6.32;;;9.70;99.90;;;;;;5002519;28;20056;-56
2023/04/01 05:46:59;;;;;;;8.98;6.95;;;9.80;99.90;;;;;;5002812;28;20395;-54
2023/04/01 05:49:24;;;;;;;7.07;6.38;;;9.80;99.90;;;;;;5002277;28;20038;-55
2023/04/01 05:51:51;;;;;;;7.38;6.38;;;9.90;99.90;;;;;;5002461;28;20038;-55
2023/04/01 05:54:16;;;;;;;6.95;6.25;;;9.80;99.90;;;;;;5000942;28;20053;-56
2023/04/01 05:56:42;;;;;;;8.98;7.45;;;9.80;99.90;;;;;;5000072;28;20062;-54
2023/04/01 05:59:10;;;;;;;10.18;7.70;;;9.80;99.90;;;;;;4997277;28;20076;-54
2023/04/01 06:01:36;;;;;;;8.73;7.82;;;9.80;99.90;;;;;;4996380;28;20042;-54
2023/04/01 06:04:01;;;;;;;12.07;9.63;;;9.90;99.90;;;;;;5000926;28;20041;-56
2023/04/01 06:06:29;;;;;;;10.15;8.65;;;9.90;99.90;;;;;;4982772;28;20033;-55
2023/04/01 06:08:57;;;;;;;11.82;8.75;;;9.90;99.90;;;;;;4975800;28;20386;-54
2023/04/01 06:11:36;;;;;;;;;;;9.80;99.90;;;;;;5006050;28;20383;-55
2023/04/01 06:14:10;;;;;;;13.50;9.68;;;9.90;99.90;;;;;;4989595;28;19972;-54
2023/04/01 06:17:05;;;;;;;10.50;9.40;;;9.90;99.90;;;;;;5008283;28;20094;-56
2023/04/01 06:20:08;;;;;;;11.90;9.18;;;9.80;99.90;;;;;;5003821;28;20042;-52
2023/04/01 06:23:10;;;;;;;12.23;9.75;;;9.80;99.90;;;;;;5005910;28;20503;-55
2023/04/01 06:26:11;;;;;;;13.13;9.77;;;9.90;99.90;;;;;;5008204;28;20086;-53
2023/04/01 06:29:10;;;;;;;14.93;9.32;;;9.90;99.90;;;;;;5009432;28;20081;-53
2023/04/01 06:31:59;;;;;;;11.45;8.90;;;9.90;99.90;;;;;;5005477;28;20049;-56
2023/04/01 06:34:33;;;;;;;12.18;9.48;;;9.90;99.90;;;;;;4986911;28;20049;-55
2023/04/01 06:37:30;;;;;;;13.45;9.65;;;9.90;99.90;;;;;;5004626;28;20045;-56
2023/04/01 06:40:23;;;;;;;12.38;9.88;;;9.90;99.90;;;;;;5004611;28;20091;-56
2023/04/01 06:43:00;;;;;;;12.60;10.35;;;9.90;99.90;;;;;;5008909;28;20042;-55
2023/04/01 06:45:48;;;;;;;13.37;10.33;;;9.90;99.90;;;;;;4999120;28;20543;-56
2023/04/01 06:48:39;;;;;;;16.13;11.10;;;9.90;99.90;;;;;;5024401;28;20424;-55
2023/04/01 06:51:13;;;;;;;14.80;10.75;;;10.00;99.90;;;;;;5007503;28;20052;-58
2023/04/01 06:53:47;;;;;;;17.92;11.68;;;10.00;99.90;;;;;;4982557;28;20038;-56
2023/04/01 06:56:16;;;;;;;16.23;11.20;;;10.00;99.90;;;;;;4961308;28;20554;-56
2023/04/01 06:58:58;;;;;;;14.45;10.38;;;10.00;99.90;;;;;;4980621;28;20504;-53
2023/04/01 07:01:32;;;;;;;14.88;10.18;;;10.00;99.90;;;;;;5003068;28;20474;-56
2023/04/01 07:04:20;;;;;;;18.10;10.98;;;10.00;99.90;;;;;;4967425;28;20568;-55
2023/04/01 07:07:08;;;;;;;15.82;10.35;;;10.10;99.90;;;;;;5004208;28;20046;-53
2023/04/01 07:09:41;;;;;;;13.65;10.25;;;10.10;99.90;;;;;;5001460;28;20618;-54
2023/04/01 07:12:36;;;;;;;10.80;9.65;;;10.20;99.90;;;;;;5000619;28;20053;-56
2023/04/01 07:15:14;;;;;;;11.20;9.50;;;10.30;99.90;;;;;;4980540;28;20050;-55
2023/04/01 07:17:42;;;;;;;15.18;10.40;;;10.20;99.90;;;;;;5018949;28;20046;-56
2023/04/01 07:20:16;;;;;;;12.02;9.82;;;10.30;99.90;;;;;;5001146;28;20141;-56
2023/04/01 07:22:49;;;;;;;11.20;9.07;;;10.30;99.90;;;;;;5005691;28;20046;-54
2023/04/01 07:25:16;;;;;;;13.48;10.10;;;10.30;99.90;;;;;;4986189;28;20099;-55
2023/04/01 07:27:43;;;;;;;13.05;10.15;;;10.40;99.90;;;;;;4981943;28;20080;-54
2023/04/01 07:30:33;;;;;;;11.70;9.60;;;10.40;99.90;;;;;;5009501;28;20042;-55
2023/04/01 07:33:43;;;;;;;9.93;8.80;;;10.40;99.90;;;;;;5009904;28;20050;-54
2023/04/01 07:36:19;;;;;;;11.20;9.23;;;10.40;99.90;;;;;;5010047;28;20094;-54
2023/04/01 07:39:10;;;;;;;12.05;8.95;;;10.50;99.90;;;;;;4993057;28;20058;-56
2023/04/01 07:42:01;;;;;;;9.07;7.75;;;10.60;99.90;;;;;;5000602;28;20117;-54
2023/04/01 07:44:53;;;;;;;8.25;7.43;;;10.50;99.90;;;;;;5010226;28;20041;-55
2023/04/01 07:47:33;;;;;;;9.57;7.75;;;10.50;99.90;;;;;;4992233;28;20441;-56
2023/04/01 07:50:28;;;;;;;9.45;7.97;;;10.70;99.90;;;;;;5007643;28;20077;-53
2023/04/01 07:53:13;;;;;;;11.73;8.63;;;10.70;99.90;;;;;;4993363;28;20054;-54
2023/04/01 07:55:54;;;;;;;11.60;9.07;;;10.70;99.90;;;;;;5009708;28;20042;-56
2023/04/01 07:58:31;;;;;;;9.80;8.80;;;10.80;99.90;;;;;;5009263;28;20053;-56
2023/04/01 08:01:24;;;;;;;10.88;9.32;;;10.80;99.90;;;;;;5009258;28;20499;-55
2023/04/01 08:04:11;;;;;;;10.07;8.98;;;10.80;99.90;;;;;;4991079;28;20050;-53
2023/04/01 08:06:51;;;;;;;9.48;8.48;;;10.90;99.90;;;;;;4992960;28;20136;-56
2023/04/01 08:10:00;;;;;;;12.63;8.70;;;11.10;99.90;;;;;;5008978;28;20050;-55
2023/04/01 08:12:35;;;;;;;10.00;8.35;;;11.00;99.90;;;;;;4991197;28;20065;-56
2023/04/01 08:15:09;;;;;;;9.57;8.23;;;11.10;99.90;;;;;;4989089;28;20401;-55
2023/04/01 08:17:54;;;;;;;9.48;7.70;;;11.20;99.90;;;;;;4987160;28;20180;-56
2023/04/01 08:20:34;;;;;;;7.28;6.50;;;11.50;99.90;;;;;;5009218;28;20042;-53
2023/04/01 08:23:28;;;;;;;7.30;6.50;;;11.30;99.90;;;;;;5010013;28;20499;-53
2023/04/01 08:26:26;;;;;;;7.88;6.80;;;11.40;99.90;;;;;;5009729;28;20058;-54
2023/04/01 08:29:00;;;;;;;;;;;11.40;99.90;;;;;;5022758;28;20119;-55
2023/04/01 08:31:39;;;;;;;7.38;6.53;;;11.30;99.90;;;;;;5010351;28;20251;-52
2023/04/01 08:34:12;;;;;;;8.40;7.50;;;11.30;99.90;;;;;;5010130;28;20094;-57
2023/04/01 08:36:43;;;;;;;6.90;6.28;;;11.20;99.90;;;;;;5010266;28;20125;-55
2023/04/01 08:39:24;;;;;;;7.68;6.88;;;11.10;99.90;;;;;;5009011;28;20391;-55
2023/04/01 08:42:21;;;;;;;8.32;6.90;;;11.10;99.90;;;;;;5010293;28;20053;-57
2023/04/01 08:45:05;;;;;;;6.80;6.07;;;11.10;99.90;;;;;;5010434;28;20042;-56
2023/04/01 08:48:00;;;;;;;7.60;6.80;;;11.00;99.90;;;;;;5010254;28;20103;-56
2023/04/01 08:50:52;;;;;;;5.88;4.40;;;11.10;99.90;;;;;;5004299;28;20499;-55
2023/04/01 08:53:33;;;;;;;6.85;4.85;;;11.20;99.90;;;;;;5005460;28;20045;-54
2023/04/01 08:56:26;;;;;;;4.97;4.47;;;11.20;99.90;;;;;;5008906;28;20187;-53
2023/04/01 08:58:58;;;;;;;4.75;4.13;;;11.20;99.90;;;;;;5090452;28;20097;-57
2023/04/01 09:01:43;;;;;;;5.68;5.07;;;11.10;99.90;;;;;;5090419;28;20052;-56
2023/04/01 09:04:52;;;;;;;5.07;4.57;;;11.30;99.90;;;;;;5091677;28;20119;-55
2023/04/01 09:07:49;;;;;;;5.20;4.70;;;11.30;99.90;;;;;;5090832;28;20178;-57
2023/04/01 09:10:27;;;;;;;4.80;4.40;;;11.20;99.90;;;;;;5077796;28;20055;-56
2023/04/01 09:13:06;;;;;;;;;;;11.20;99.90;;;;;;5082314;28;20636;-55
2023/04/01 09:15:57;;;;;;;7.38;6.68;;;11.20;99.90;;;;;;5091130;28;20002;-54
2023/04/01 09:18:59;;;;;;;6.53;5.93;;;11.20;99.90;;;;;;5091445;28;20185;-56
2023/04/01 09:21:36;;;;;;;10.55;7.40;;;11.20;99.90;;;;;;5091123;28;20110;-57
2023/04/01 09:24:39;;;;;;;8.40;6.82;;;11.30;99.90;;;;;;5083613;28;20060;-56
2023/04/01 09:27:21;;;;;;;7.65;6.85;;;11.40;99.90;;;;;;5090328;28;20552;-55
2023/04/01 09:30:07;;;;;;;7.43;6.60;;;11.60;99.90;;;;;;5090905;28;20378;-57
2023/04/01 09:32:45;;;;;;;6.87;6.13;;;11.50;99.90;;;;;;5090994;28;20040;-56
2023/04/01 09:35:20;;;;;;;;;;;11.50;99.90;;;;;;5091784;28;20402;-56
2023/04/01 09:37:47;;;;;;;3.88;3.47;;;11.50;99.90;;;;;;5091052;28;19924;-56
2023/04/01 09:40:40;;;;;;;3.97;3.67;;;11.40;99.90;;;;;;5090971;28;20537;-55
2023/04/01 09:43:28;;;;;;;5.13;3.42;;;11.40;99.90;;;;;;5078659;28;20059;-56
2023/04/01 09:46:00;;;;;;;;;;;11.50;99.90;;;;;;5073541;28;20052;-56
2023/04/01 09:48:58;;;;;;;4.47;4.07;;;11.80;99.90;;;;;;5092030;28;19928;-56
2023/04/01 09:51:35;;;;;;;5.07;4.30;;;11.70;99.90;;;;;;4991791;28;20237;-52
2023/04/01 09:54:21;;;;;;;4.88;4.38;;;11.70;99.90;;;;;;4993021;28;20064;-55
2023/04/01 09:56:47;;;;;;;4.05;3.72;;;12.00;99.90;;;;;;4992747;28;20046;-55
2023/04/01 09:59:37;;;;;;;3.78;3.10;;;12.00;99.90;;;;;;5012286;28;20050;-56
2023/04/01 10:02:20;;;;;;;2.65;2.45;;;11.90;99.90;;;;;;5012764;28;20064;-52
2023/04/01 10:04:52;;;;;;;2.90;2.70;;;11.80;99.90;;;;;;5011361;28;20129;-53
2023/04/01 10:07:56;;;;;;;2.47;2.28;;;11.80;99.90;;;;;;4980396;28;20129;-52
2023/04/01 10:10:55;;;;;;;2.58;2.38;;;11.80;99.90;;;;;;4995033;28;20493;-51
2023/04/01 10:14:05;;;;;;;2.15;1.98;;;11.90;99.90;;;;;;4996119;28;20372;-53
2023/04/01 10:16:50;;;;;;;2.65;2.45;;;11.80;99.90;;;;;;5011356;28;20084;-52
2023/04/01 10:19:25;;;;;;;3.03;2.83;;;11.90;99.90;;;;;;4998395;28;20446;-52
2023/04/01 10:22:10;;;;;;;3.28;2.95;;;11.90;99.90;;;;;;5012133;28;20053;-52
2023/04/01 10:25:00;;;;;;;3.17;2.80;;;11.90;99.90;;;;;;5001580;28;20128;-51
2023/04/01 10:27:49;;;;;;;4.60;3.20;;;11.80;99.90;;;;;;5010821;28;20282;-52
2023/04/01 10:30:52;;;;;;;3.00;2.80;;;11.80;99.90;;;;;;5010145;28;20046;-53
2023/04/01 10:33:24;;;;;;;2.63;2.42;;;11.70;99.90;;;;;;5014716;28;20042;-54
2023/04/01 10:35:52;;;;;;;2.85;2.65;;;11.60;99.90;;;;;;5010506;28;20129;-54
2023/04/01 10:38:44;;;;;;;3.42;3.13;;;11.60;99.90;;;;;;4993363;28;20042;-56
2023/04/01 10:41:12;;;;;;;4.85;4.10;;;11.70;99.90;;;;;;5011180;28;20145;-56
2023/04/01 10:44:15;;;;;;;4.20;3.90;;;11.60;99.90;;;;;;5010942;28;20070;-56
2023/04/01 10:47:06;;;;;;;4.55;4.18;;;11.70;99.90;;;;;;4998531;28;20384;-55
2023/04/01 10:50:10;;;;;;;4.30;3.90;;;11.90;99.90;;;;;;4985642;28;20091;-55
2023/04/01 10:52:57;;;;;;;4.93;4.43;;;11.90;99.90;;;;;;5005959;28;20122;-53
2023/04/01 10:56:01;;;;;;;4.88;4.47;;;12.00;99.90;;;;;;5007336;28;20053;-51
2023/04/01 10:58:47;;;;;;;4.47;4.15;;;12.00;99.90;;;;;;5006406;28;20379;-56
2023/04/01 11:01:27;;;;;;;5.20;4.70;;;12.00;99.90;;;;;;5007014;28;20042;-54
2023/04/01 11:04:17;;;;;;;4.68;4.28;;;12.00;99.90;;;;;;4998932;28;20162;-55
2023/04/01 11:06:51;;;;;;;5.15;4.55;;;11.90;99.90;;;;;;5003857;28;20048;-55
2023/04/01 11:09:46;;;;;;;5.78;5.05;;;11.90;99.90;;;;;;5008273;28;20049;-55
2023/04/01 11:12:47;;;;;;;5.15;4.70;;;12.00;99.90;;;;;;5043095;28;20091;-56
2023/04/01 11:15:35;;;;;;;4.85;4.45;;;11.90;99.90;;;;;;5009999;28;20054;-56
2023/04/01 11:18:13;;;;;;;5.00;4.60;;;11.90;99.90;;;;;;5011220;28;20050;-56
2023/04/01 11:20:52;;;;;;;4.80;4.40;;;11.90;99.90;;;;;;5008288;28;20045;-52
2023/04/01 11:23:56;;;;;;;5.20;4.78;;;11.90;99.90;;;;;;5008387;28;20448;-55
2023/04/01 11:26:33;;;;;;;4.63;4.22;;;11.90;99.90;;;;;;5008041;28;20049;-53
2023/04/01 11:29:36;;;;;;;4.15;3.80;;;12.00;99.90;;;;;;5010904;28;20054;-52
2023/04/01 11:32:10;;;;;;;4.80;3.72;;;12.00;99.90;;;;;;5011281;28;20095;-54
2023/04/01 11:34:56;;;;;;;4.55;4.22;;;11.90;99.90;;;;;;5005296;28;20041;-52
2023/04/01 11:37:43;;;;;;;4.68;4.22;;;11.80;99.90;;;;;;4994932;28;20111;-52
2023/04/01 11:40:31;;;;;;;4.55;4.10;;;11.80;99.90;;;;;;5009836;28;20048;-51
2023/04/01 11:43:21;;;;;;;4.72;4.25;;;11.90;99.90;;;;;;5009757;28;20085;-54
2023/04/01 11:45:50;;;;;;;5.38;4.97;;;11.90;99.90;;;;;;5009157;28;20050;-51
2023/04/01 11:48:43;;;;;;;5.28;4.88;;;12.00;99.90;;;;;;5010753;28;20045;-53
2023/04/01 11:51:30;;;;;;;5.20;4.80;;;12.10;99.90;;;;;;5011031;28;20564;-52
2023/04/01 11:54:11;;;;;;;5.22;4.80;;;12.40;99.90;;;;;;5013373;28;20518;-52
2023/04/01 11:56:47;;;;;;;4.70;4.30;;;12.30;99.90;;;;;;5001750;28;20062;-54
2023/04/01 11:59:40;;;;;;;5.13;4.72;;;12.30;99.90;;;;;;5005961;28;20080;-53
2023/04/01 12:02:39;;;;;;;5.30;4.80;;;12.40;99.90;;;;;;5005608;28;20150;-57
2023/04/01 12:05:32;;;;;;;5.30;4.80;;;12.30;99.90;;;;;;5002690;28;20658;-52
2023/04/01 12:08:06;;;;;;;5.22;4.82;;;12.20;99.90;;;;;;4985212;28;20037;-54
2023/04/01 12:10:40;;;;;;;5.05;4.65;;;12.40;99.90;;;;;;4988036;28;20540;-55
2023/04/01 12:13:11;;;;;;;4.22;3.92;;;12.20;99.90;;;;;;4996100;28;20070;-53
2023/04/01 12:15:51;;;;;;;4.75;4.30;;;12.10;99.90;;;;;;5010026;28;20065;-52
2023/04/01 12:18:43;;;;;;;4.43;4.03;;;12.10;99.90;;;;;;4992846;28;20054;-55
2023/04/01 12:21:44;;;;;;;3.88;3.58;;;12.10;99.90;;;;;;5010320;28;20038;-56
2023/04/01 12:24:44;;;;;;;4.35;3.95;;;12.00;99.90;;;;;;4980373;28;20111;-55
2023/04/01 12:27:50;;;;;;;4.22;3.92;;;12.00;99.90;;;;;;4977813;28;20086;-51
2023/04/01 12:30:32;;;;;;;4.75;4.40;;;12.00;99.90;;;;;;5009867;28;20062;-56
2023/04/01 12:33:03;;;;;;;5.30;4.85;;;11.90;99.90;;;;;;4993024;28;20053;-55
2023/04/01 12:35:49;;;;;;;4.82;4.40;;;11.60;99.90;;;;;;5010374;28;20042;-52
2023/04/01 12:38:38;;;;;;;4.47;4.15;;;11.50;99.90;;;;;;5008152;28;20483;-54
2023/04/01 12:41:03;;;;;;;5.28;4.78;;;11.30;99.90;;;;;;5010164;28;20037;-54
2023/04/01 12:44:06;;;;;;;5.78;5.15;;;11.30;99.90;;;;;;5010004;28;20048;-54
2023/04/01 12:47:10;;;;;;;4.60;4.20;;;11.20;99.90;;;;;;5009912;28;20049;-56
2023/04/01 12:49:56;;;;;;;4.40;4.10;;;11.10;99.90;;;;;;4975135;28;20049;-55
2023/04/01 12:52:41;;;;;;;4.40;4.00;;;11.10;99.90;;;;;;4999584;28;20068;-52
2023/04/01 12:55:09;;;;;;;3.95;3.65;;;11.10;99.90;;;;;;4992152;28;20107;-54
2023/04/01 12:57:38;;;;;;;4.05;3.75;;;11.10;99.90;;;;;;5005388;28;20069;-56
2023/04/01 13:00:28;;;;;;;3.58;3.22;;;11.10;99.90;;;;;;4990384;28;20050;-55
2023/04/01 13:03:31;;;;;;;3.63;3.33;;;11.10;99.90;;;;;;4990501;28;20053;-52
2023/04/01 13:06:30;;;;;;;3.40;3.10;;;11.10;99.90;;;;;;4990537;28;20053;-56
2023/04/01 13:09:35;;;;;;;2.88;2.67;;;11.00;99.90;;;;;;5006930;28;20049;-54
2023/04/01 13:12:03;;;;;;;3.78;3.47;;;10.90;99.90;;;;;;5009846;28;20053;-53
2023/04/01 13:14:47;;;;;;;4.70;4.30;;;10.90;99.90;;;;;;4992181;28;20038;-52
2023/04/01 13:17:29;;;;;;;4.10;3.80;;;10.90;99.90;;;;;;5009057;28;20053;-56
2023/04/01 13:20:03;;;;;;;3.45;3.15;;;10.90;99.90;;;;;;5009588;28;20046;-55
2023/04/01 13:22:53;;;;;;;3.25;3.05;;;11.00;99.90;;;;;;4983976;28;20401;-52
2023/04/01 13:25:36;;;;;;;3.67;3.38;;;10.80;99.90;;;;;;4990185;28;20046;-52
2023/04/01 13:28:22;;;;;;;3.88;3.50;;;;;;;;;;4998975;28;20046;-51
2023/04/01 13:30:59;;;;;;;2.88;2.67;;;10.70;99.90;;;;;;5013190;28;20046;-55
2023/04/01 13:33:32;;;;;;;4.68;4.28;;;10.70;99.90;;;;;;5012925;28;20524;-52
2023/04/01 13:36:16;;;;;;;3.35;3.13;;;10.80;99.90;;;;;;5013316;28;20445;-52
2023/04/01 13:39:00;;;;;;;3.20;2.95;;;10.80;99.90;;;;;;5011956;28;20499;-54
2023/04/01 13:41:49;;;;;;;4.00;3.70;;;10.80;99.90;;;;;;5007145;28;20159;-56
2023/04/01 13:44:32;;;;;;;3.80;3.50;;;10.70;99.90;;;;;;4993082;28;20054;-52
2023/04/01 13:47:34;;;;;;;4.35;3.58;;;10.70;99.90;;;;;;4994644;28;20053;-52